Time;durP1;ratioP1;P1;durP2;ratioP2;P2;SDS_P1;SDS_P2;PMS_P1;PMS_P2;Temp;Humidity;BMP_temperature;BMP_pressure;BME280_temperature;BME280_humidity;BME280_pressure;Samples;Min_cycle;Max_cycle;Signal;HPM_P1;HPM_P2
2022/09/16 00:03:34;;;;;;;8.20;3.90;;;14.30;99.90;;;;;;21075204;28;20058;-75
2022/09/16 00:13:35;;;;;;;6.77;4.17;;;14.30;99.90;;;;;;21074760;28;20064;-75
2022/09/16 00:23:36;;;;;;;14.30;4.57;;;14.30;99.90;;;;;;21056620;28;20032;-75
2022/09/16 00:33:37;;;;;;;7.10;3.90;;;14.40;99.90;;;;;;21073627;28;20044;-75
2022/09/16 00:44:00;;;;;;;4.47;3.03;;;14.50;99.90;;;;;;21073272;28;20509;-75
2022/09/16 00:54:02;;;;;;;;;;;14.50;99.90;;;;;;21073045;28;20127;-76
2022/09/16 01:04:08;;;;;;;7.90;4.17;;;14.20;99.90;;;;;;21076682;28;20039;-75
2022/09/16 01:24:56;;;;;;;8.00;4.43;;;14.20;99.90;;;;;;21087318;28;20028;-75
2022/09/16 01:35:29;;;;;;;12.45;4.82;;;14.30;99.90;;;;;;21086730;28;20082;-75
2022/09/16 01:46:08;;;;;;;15.13;5.47;;;14.40;99.90;;;;;;21085420;28;20048;-75
2022/09/16 01:56:17;;;;;;;19.20;8.27;;;14.40;99.90;;;;;;21068571;28;20060;-74
2022/09/16 02:06:22;;;;;;;11.60;6.60;;;14.50;99.90;;;;;;21084172;28;20505;-75
2022/09/16 02:16:50;;;;;;;10.70;6.05;;;14.50;99.90;;;;;;21082248;28;20036;-75
2022/09/16 02:27:03;;;;;;;14.27;6.28;;;14.60;99.90;;;;;;21064102;28;20040;-75
2022/09/16 02:37:12;;;;;;;9.02;5.75;;;14.60;99.90;;;;;;21081618;28;20039;-74
2022/09/16 02:47:22;;;;;;;11.50;5.63;;;14.50;99.90;;;;;;21080745;28;20064;-75
2022/09/16 02:57:23;;;;;;;7.88;5.57;;;14.40;99.90;;;;;;21080188;28;20039;-75
2022/09/16 03:07:24;;;;;;;10.83;6.10;;;14.30;99.90;;;;;;21078401;28;20068;-75
2022/09/16 03:17:50;;;;;;;11.63;5.67;;;14.10;99.90;;;;;;21078199;28;20067;-75
2022/09/16 03:27:56;;;;;;;7.38;4.40;;;14.00;99.90;;;;;;21077121;28;20048;-75
2022/09/16 03:37:59;;;;;;;11.40;4.68;;;14.10;99.90;;;;;;21078621;28;20039;-75
2022/09/16 03:48:00;;;;;;;8.30;4.82;;;14.10;99.90;;;;;;21062265;28;20517;-75
2022/09/16 03:58:01;;;;;;;21.87;6.10;;;14.00;99.90;;;;;;21076117;28;20048;-76
2022/09/16 04:08:02;;;;;;;10.73;6.83;;;14.20;99.90;;;;;;21078288;28;20123;-75
2022/09/16 04:18:02;;;;;;;11.73;7.73;;;14.30;99.90;;;;;;21053706;28;20036;-75
2022/09/16 04:28:03;;;;;;;13.67;7.10;;;14.10;99.90;;;;;;21073994;28;20032;-75
2022/09/16 04:38:04;;;;;;;10.10;6.10;;;14.20;99.90;;;;;;21076444;28;20047;-76
2022/09/16 04:48:05;;;;;;;10.80;5.50;;;14.30;99.90;;;;;;21091541;28;20085;-76
2022/09/16 04:58:05;;;;;;;12.23;6.13;;;14.30;99.90;;;;;;21069914;28;20050;-76
2022/09/16 05:08:06;;;;;;;12.13;6.10;;;14.40;99.90;;;;;;21088211;28;20032;-75
2022/09/16 05:18:07;;;;;;;12.97;6.87;;;14.40;99.90;;;;;;21061946;28;20574;-75
2022/09/16 05:28:08;;;;;;;18.93;6.97;;;14.40;99.90;;;;;;21086159;28;20032;-75
2022/09/16 05:38:09;;;;;;;15.87;9.43;;;14.50;99.90;;;;;;21085971;28;20520;-75
2022/09/16 05:48:09;;;;;;;22.13;9.33;;;14.50;99.90;;;;;;21085065;28;20040;-75
2022/09/16 05:58:10;;;;;;;21.57;9.83;;;14.40;99.90;;;;;;21084739;28;20036;-75
2022/09/16 06:08:11;;;;;;;21.33;10.83;;;14.30;99.90;;;;;;21065544;28;20123;-75
2022/09/16 06:18:15;;;;;;;21.23;10.70;;;14.20;99.90;;;;;;21065001;28;20405;-75
2022/09/16 06:28:15;;;;;;;13.55;9.10;;;14.20;99.90;;;;;;21081247;28;20443;-75
2022/09/16 06:38:16;;;;;;;20.07;9.43;;;14.20;99.90;;;;;;21078229;28;20047;-75
2022/09/16 06:48:17;;;;;;;28.00;10.53;;;14.20;99.90;;;;;;21079836;28;20056;-75
2022/09/16 06:58:18;;;;;;;22.83;11.00;;;14.20;99.90;;;;;;21080013;28;20047;-75
2022/09/16 07:08:18;;;;;;;22.50;8.87;;;14.70;99.90;;;;;;21078392;28;20047;-74
2022/09/16 07:18:19;;;;;;;12.77;6.63;;;15.40;99.90;;;;;;21078682;28;20118;-76
2022/09/16 07:28:20;;;;;;;12.03;5.87;;;15.70;99.90;;;;;;21077671;28;20070;-76
2022/09/16 07:38:21;;;;;;;8.93;4.90;;;15.60;99.90;;;;;;21058902;28;20513;-75
2022/09/16 07:48:21;;;;;;;8.10;5.07;;;15.60;99.90;;;;;;21076496;28;20036;-75
2022/09/16 07:58:22;;;;;;;10.07;5.03;;;15.50;99.90;;;;;;21075695;28;20056;-75
2022/09/16 08:08:23;;;;;;;5.87;4.20;;;15.30;99.90;;;;;;21074872;28;20127;-75
2022/09/16 08:18:24;;;;;;;9.17;4.47;;;15.30;99.90;;;;;;21055606;28;20040;-74
2022/09/16 08:28:26;;;;;;;6.83;3.50;;;15.50;99.90;;;;;;21073996;28;20453;-75
2022/09/16 08:38:28;;;;;;;7.70;4.28;;;15.40;99.90;;;;;;21073716;28;20502;-75
2022/09/16 08:48:41;;;;;;;6.70;3.35;;;15.80;99.90;;;;;;21037504;28;20037;-75
2022/09/16 08:58:48;;;;;;;9.57;3.53;;;16.30;99.90;;;;;;20988801;28;20087;-74
2022/09/16 09:09:27;;;;;;;6.15;3.70;;;15.80;99.90;;;;;;20988495;28;20063;-74
2022/09/16 09:19:37;;;;;;;5.20;3.67;;;17.70;99.90;;;;;;20988187;28;20123;-74
2022/09/16 09:30:01;;;;;;;5.07;3.42;;;16.80;99.90;;;;;;20980657;28;20417;-75
2022/09/16 09:40:14;;;;;;;7.63;4.00;;;17.60;99.90;;;;;;21002540;28;20053;-75
2022/09/16 09:50:29;;;;;;;9.00;3.42;;;19.00;99.90;;;;;;21001815;28;20064;-75
2022/09/16 10:00:30;;;;;;;6.75;3.72;;;19.20;99.90;;;;;;21001159;28;20036;-75
2022/09/16 10:10:33;;;;;;;8.25;3.63;;;18.20;99.90;;;;;;20999880;28;20051;-75
2022/09/16 10:20:37;;;;;;;10.63;3.70;;;17.30;99.90;;;;;;20981614;28;20525;-75
2022/09/16 10:30:47;;;;;;;9.68;4.75;;;17.00;99.90;;;;;;20995953;28;20036;-75
2022/09/16 10:40:56;;;;;;;8.13;4.85;;;16.90;99.90;;;;;;20996812;28;20490;-75
2022/09/16 10:51:00;;;;;;;6.43;4.00;;;16.90;99.90;;;;;;20997444;28;20333;-75
2022/09/16 11:01:23;;;;;;;7.00;3.63;;;18.60;99.90;;;;;;20995670;28;20047;-75
2022/09/16 11:11:39;;;;;;;8.02;3.80;;;18.10;99.90;;;;;;20995044;28;20235;-75
2022/09/16 11:22:18;;;;;;;6.97;3.05;;;18.00;99.90;;;;;;20993973;28;20075;-75
2022/09/16 11:32:45;;;;;;;4.55;2.90;;;18.00;99.90;;;;;;20870789;28;20143;-75
2022/09/16 11:43:30;;;;;;;5.95;3.00;;;17.30;99.90;;;;;;20973018;28;20040;-75
2022/09/16 11:53:51;;;;;;;3.55;1.73;;;17.50;99.90;;;;;;20972935;28;20545;-75
2022/09/16 12:03:59;;;;;;;4.43;1.80;;;19.60;99.90;;;;;;20959479;28;20043;-75
2022/09/16 12:14:19;;;;;;;4.15;1.70;;;20.60;99.90;;;;;;21001271;28;20036;-75
2022/09/16 12:24:38;;;;;;;6.50;2.00;;;21.00;99.90;;;;;;21042209;28;20042;-76
2022/09/16 12:34:48;;;;;;;2.13;1.90;;;19.20;99.90;;;;;;21025543;28;20044;-75
2022/09/16 12:45:00;;;;;;;6.38;2.10;;;18.80;99.90;;;;;;20989313;28;20033;-75
2022/09/16 12:55:04;;;;;;;6.00;1.95;;;18.50;99.90;;;;;;20989296;28;20047;-76
2022/09/16 13:05:22;;;;;;;4.18;1.92;;;19.00;99.90;;;;;;21001236;28;20410;-76
2022/09/16 13:15:25;;;;;;;5.97;1.98;;;18.60;99.90;;;;;;21004108;28;20041;-75
2022/09/16 13:25:32;;;;;;;3.15;1.35;;;17.50;99.90;;;;;;20991409;28;20028;-75
2022/09/16 13:36:14;;;;;;;1.67;1.33;;;16.70;99.90;;;;;;21003019;28;20086;-75
2022/09/16 13:46:27;;;;;;;2.08;1.08;;;18.10;99.90;;;;;;20944183;28;20044;-75
2022/09/16 13:57:06;;;;;;;2.47;1.48;;;17.00;99.90;;;;;;20983306;28;20098;-74
2022/09/16 14:07:25;;;;;;;2.67;1.45;;;17.20;99.90;;;;;;21000031;28;20045;-75
2022/09/16 14:17:35;;;;;;;3.40;1.67;;;17.20;99.90;;;;;;20999251;28;20076;-75
2022/09/16 14:27:38;;;;;;;5.10;2.15;;;17.10;99.90;;;;;;20998250;28;20035;-74
2022/09/16 14:37:39;;;;;;;4.22;2.08;;;16.90;99.90;;;;;;20997640;28;20075;-75
2022/09/16 14:47:40;;;;;;;3.38;1.90;;;17.00;99.90;;;;;;20967656;28;20045;-75
2022/09/16 14:57:41;;;;;;;3.20;1.60;;;16.40;99.90;;;;;;20925317;28;20055;-76
2022/09/16 15:07:43;;;;;;;3.50;2.13;;;18.00;99.90;;;;;;20894435;28;20490;-75
2022/09/16 15:17:55;;;;;;;3.88;1.88;;;17.40;99.90;;;;;;21064921;28;20410;-76
2022/09/16 15:28:17;;;;;;;4.13;2.25;;;16.80;99.90;;;;;;21072413;28;20521;-75
2022/09/16 15:38:22;;;;;;;2.20;1.45;;;16.60;99.90;;;;;;21077443;28;20097;-76
2022/09/16 15:48:25;;;;;;;2.38;1.40;;;15.40;99.90;;;;;;21057886;28;20441;-76
2022/09/16 15:58:32;;;;;;;3.90;1.60;;;15.20;99.90;;;;;;21075638;28;20125;-76
2022/09/16 16:08:43;;;;;;;5.10;1.98;;;15.20;99.90;;;;;;21074472;28;20044;-75
2022/09/16 16:18:45;;;;;;;1.98;1.40;;;15.30;99.90;;;;;;21056086;28;20502;-75
2022/09/16 16:28:45;;;;;;;;;;;14.80;99.90;;;;;;21074468;28;20032;-75
2022/09/16 16:38:47;;;;;;;9.03;2.17;;;14.80;99.90;;;;;;21070000;28;19915;-75
2022/09/16 16:48:48;;;;;;;3.53;2.22;;;14.40;99.90;;;;;;21054795;28;20286;-75
2022/09/16 16:58:48;;;;;;;4.70;3.17;;;14.30;99.90;;;;;;21072747;28;20513;-75
2022/09/16 17:08:49;;;;;;;8.67;2.70;;;13.80;99.90;;;;;;21072112;28;20070;-75
2022/09/16 17:18:51;;;;;;;8.13;2.63;;;13.50;99.90;;;;;;21071581;28;20560;-75
2022/09/16 17:28:52;;;;;;;7.32;2.90;;;13.30;99.90;;;;;;21071296;28;20094;-75
2022/09/16 17:38:56;;;;;;;;;;;13.20;99.90;;;;;;21071708;28;20059;-75
2022/09/16 17:49:13;;;;;;;5.78;3.83;;;13.10;99.90;;;;;;21078700;28;19918;-75
2022/09/16 17:59:16;;;;;;;7.97;5.00;;;13.00;99.90;;;;;;21084916;28;20118;-75
2022/09/16 18:09:16;;;;;;;8.85;5.03;;;12.80;99.90;;;;;;21083196;28;20119;-75
2022/09/16 18:19:17;;;;;;;10.43;6.00;;;12.80;99.90;;;;;;21082329;28;20525;-75
2022/09/16 18:29:18;;;;;;;9.77;5.40;;;12.80;99.90;;;;;;21063828;28;20126;-75
2022/09/16 18:39:20;;;;;;;11.90;4.73;;;12.70;99.90;;;;;;21080889;28;20070;-75
2022/09/16 18:49:25;;;;;;;;;;;12.70;99.90;;;;;;21080728;28;20047;-76
2022/09/16 18:59:28;;;;;;;6.72;4.50;;;12.60;99.90;;;;;;21078327;28;19912;-75
2022/09/16 19:09:29;;;;;;;6.65;3.55;;;12.60;99.90;;;;;;21078075;28;20082;-75
2022/09/16 19:19:30;;;;;;;5.27;3.20;;;12.50;99.90;;;;;;21074999;28;20032;-74
2022/09/16 19:29:31;;;;;;;6.87;3.83;;;12.40;99.90;;;;;;21072839;28;20096;-74
2022/09/16 19:39:32;;;;;;;8.23;3.90;;;12.10;99.90;;;;;;21073553;28;20118;-75
2022/09/16 19:49:33;;;;;;;7.07;3.78;;;12.00;99.90;;;;;;21075067;28;20040;-75
2022/09/16 19:59:34;;;;;;;6.23;3.27;;;12.00;99.90;;;;;;21057008;28;20505;-75
2022/09/16 20:09:35;;;;;;;6.50;3.17;;;12.00;99.90;;;;;;21074273;28;20055;-74
2022/09/16 20:19:35;;;;;;;6.43;3.03;;;11.90;99.90;;;;;;21073774;28;20028;-74
2022/09/16 20:29:36;;;;;;;4.30;3.00;;;11.90;99.90;;;;;;21073845;28;20044;-75
2022/09/16 20:39:37;;;;;;;6.80;3.07;;;11.90;99.90;;;;;;21073533;28;20039;-75
2022/09/16 20:49:38;;;;;;;10.50;3.53;;;12.00;99.90;;;;;;21054534;28;20105;-75
2022/09/16 20:59:39;;;;;;;4.53;2.77;;;12.00;99.90;;;;;;21072263;28;20038;-74
2022/09/16 21:09:39;;;;;;;5.13;2.37;;;11.70;99.90;;;;;;21071665;28;20044;-74
2022/09/16 21:19:40;;;;;;;4.00;2.10;;;11.40;99.90;;;;;;21074003;28;20492;-74
2022/09/16 21:29:42;;;;;;;8.63;3.30;;;11.20;99.90;;;;;;21087490;28;20036;-73
2022/09/16 21:39:42;;;;;;;6.07;2.35;;;11.20;99.90;;;;;;21085217;28;20131;-74
2022/09/16 21:49:43;;;;;;;4.70;2.00;;;11.00;99.90;;;;;;21066862;28;20487;-75
2022/09/16 21:59:44;;;;;;;4.97;1.63;;;11.00;99.90;;;;;;21085283;28;20059;-75
2022/09/16 22:09:45;;;;;;;3.13;1.97;;;10.90;99.90;;;;;;21066296;28;20064;-75
2022/09/16 22:19:46;;;;;;;2.50;2.00;;;10.80;99.90;;;;;;21083816;28;20035;-75
2022/09/16 22:29:47;;;;;;;;;;;10.80;99.90;;;;;;21083146;28;20047;-75
2022/09/16 22:39:48;;;;;;;6.00;1.87;;;10.60;99.90;;;;;;21081041;28;19912;-75
2022/09/16 22:49:48;;;;;;;4.57;1.50;;;10.60;99.90;;;;;;21081130;28;20780;-75
2022/09/16 22:59:49;;;;;;;4.57;2.23;;;10.60;99.90;;;;;;21062185;28;20071;-75
2022/09/16 23:09:50;;;;;;;9.20;2.00;;;10.70;99.90;;;;;;21079215;28;20040;-75
2022/09/16 23:19:51;;;;;;;3.57;1.90;;;10.60;99.90;;;;;;21078815;28;20028;-75
2022/09/16 23:29:52;;;;;;;5.33;1.93;;;10.60;99.90;;;;;;21077364;28;20040;-75
2022/09/16 23:39:53;;;;;;;3.77;1.50;;;10.70;99.90;;;;;;21077126;28;20273;-75
2022/09/16 23:49:54;;;;;;;2.57;1.70;;;10.60;99.90;;;;;;21075582;28;20052;-75
2022/09/16 23:59:54;;;;;;;3.17;1.70;;;10.50;99.90;;;;;;21056050;28;20043;-75
